sensor_id;sensor_type;location;lat;lon;timestamp;P1;durP1;ratioP1;P2;durP2;ratioP2
35418;SDS011;21525;41.240;16.500;2023-01-04T00:02:05;16.25;;;11.68;;
35418;SDS011;21525;41.240;16.500;2023-01-04T00:04:31;19.10;;;13.00;;
35418;SDS011;21525;41.240;16.500;2023-01-04T00:06:57;20.02;;;11.52;;
35418;SDS011;21525;41.240;16.500;2023-01-04T00:09:23;21.13;;;13.18;;
35418;SDS011;21525;41.240;16.500;2023-01-04T00:11:49;20.02;;;12.52;;
35418;SDS011;21525;41.240;16.500;2023-01-04T00:14:14;19.70;;;11.32;;
35418;SDS011;21525;41.240;16.500;2023-01-04T00:16:42;17.63;;;12.40;;
35418;SDS011;21525;41.240;16.500;2023-01-04T00:19:09;19.20;;;11.60;;
35418;SDS011;21525;41.240;16.500;2023-01-04T00:21:36;19.10;;;11.30;;
35418;SDS011;21525;41.240;16.500;2023-01-04T00:24:02;19.13;;;12.73;;
35418;SDS011;21525;41.240;16.500;2023-01-04T00:26:29;19.20;;;12.55;;
35418;SDS011;21525;41.240;16.500;2023-01-04T00:29:04;19.65;;;12.85;;
35418;SDS011;21525;41.240;16.500;2023-01-04T00:31:31;20.30;;;12.45;;
35418;SDS011;21525;41.240;16.500;2023-01-04T00:33:58;20.30;;;12.30;;
35418;SDS011;21525;41.240;16.500;2023-01-04T00:36:25;20.13;;;13.03;;
35418;SDS011;21525;41.240;16.500;2023-01-04T00:38:52;18.27;;;11.43;;
35418;SDS011;21525;41.240;16.500;2023-01-04T00:41:40;19.63;;;12.00;;
35418;SDS011;21525;41.240;16.500;2023-01-04T00:44:09;19.67;;;12.93;;
35418;SDS011;21525;41.240;16.500;2023-01-04T00:46:36;19.55;;;11.82;;
35418;SDS011;21525;41.240;16.500;2023-01-04T00:49:02;20.08;;;12.80;;
35418;SDS011;21525;41.240;16.500;2023-01-04T00:51:30;21.00;;;12.88;;
35418;SDS011;21525;41.240;16.500;2023-01-04T00:53:59;21.17;;;12.80;;
35418;SDS011;21525;41.240;16.500;2023-01-04T00:56:26;19.73;;;12.70;;
35418;SDS011;21525;41.240;16.500;2023-01-04T00:58:57;22.25;;;13.30;;
35418;SDS011;21525;41.240;16.500;2023-01-04T01:01:25;18.38;;;12.55;;
35418;SDS011;21525;41.240;16.500;2023-01-04T01:03:55;18.42;;;11.85;;
35418;SDS011;21525;41.240;16.500;2023-01-04T01:06:23;19.88;;;12.82;;
35418;SDS011;21525;41.240;16.500;2023-01-04T01:08:50;20.95;;;13.20;;
35418;SDS011;21525;41.240;16.500;2023-01-04T01:11:16;21.80;;;13.57;;
35418;SDS011;21525;41.240;16.500;2023-01-04T01:13:43;20.13;;;12.05;;
35418;SDS011;21525;41.240;16.500;2023-01-04T01:16:09;21.42;;;13.10;;
35418;SDS011;21525;41.240;16.500;2023-01-04T01:18:38;23.33;;;14.25;;
35418;SDS011;21525;41.240;16.500;2023-01-04T01:21:07;20.95;;;13.05;;
35418;SDS011;21525;41.240;16.500;2023-01-04T01:23:36;22.30;;;13.45;;
35418;SDS011;21525;41.240;16.500;2023-01-04T01:26:03;23.20;;;13.73;;
35418;SDS011;21525;41.240;16.500;2023-01-04T01:28:30;20.83;;;13.70;;
35418;SDS011;21525;41.240;16.500;2023-01-04T01:30:56;20.58;;;13.48;;
35418;SDS011;21525;41.240;16.500;2023-01-04T01:33:24;21.70;;;13.68;;
35418;SDS011;21525;41.240;16.500;2023-01-04T01:35:51;21.48;;;13.60;;
35418;SDS011;21525;41.240;16.500;2023-01-04T01:38:17;18.20;;;12.40;;
35418;SDS011;21525;41.240;16.500;2023-01-04T01:40:43;22.52;;;12.75;;
35418;SDS011;21525;41.240;16.500;2023-01-04T01:43:19;20.65;;;13.57;;
35418;SDS011;21525;41.240;16.500;2023-01-04T01:45:48;21.55;;;12.88;;
35418;SDS011;21525;41.240;16.500;2023-01-04T01:48:19;20.63;;;13.10;;
35418;SDS011;21525;41.240;16.500;2023-01-04T01:50:52;20.10;;;12.55;;
35418;SDS011;21525;41.240;16.500;2023-01-04T01:53:20;18.63;;;11.98;;
35418;SDS011;21525;41.240;16.500;2023-01-04T01:55:48;19.83;;;12.37;;
35418;SDS011;21525;41.240;16.500;2023-01-04T01:58:20;22.48;;;13.48;;
35418;SDS011;21525;41.240;16.500;2023-01-04T02:00:53;18.00;;;12.30;;
35418;SDS011;21525;41.240;16.500;2023-01-04T02:03:20;21.40;;;12.73;;
35418;SDS011;21525;41.240;16.500;2023-01-04T02:05:51;19.40;;;13.13;;
35418;SDS011;21525;41.240;16.500;2023-01-04T02:08:19;17.70;;;12.55;;
35418;SDS011;21525;41.240;16.500;2023-01-04T02:10:47;20.90;;;12.77;;
35418;SDS011;21525;41.240;16.500;2023-01-04T02:13:14;20.90;;;13.18;;
35418;SDS011;21525;41.240;16.500;2023-01-04T02:18:44;19.98;;;13.18;;
35418;SDS011;21525;41.240;16.500;2023-01-04T02:21:25;20.60;;;12.27;;
35418;SDS011;21525;41.240;16.500;2023-01-04T02:24:19;20.60;;;12.73;;
35418;SDS011;21525;41.240;16.500;2023-01-04T02:41:24;18.27;;;11.75;;
35418;SDS011;21525;41.240;16.500;2023-01-04T02:44:17;24.75;;;16.08;;
35418;SDS011;21525;41.240;16.500;2023-01-04T02:47:09;25.33;;;15.77;;
35418;SDS011;21525;41.240;16.500;2023-01-04T02:49:39;27.45;;;18.73;;
35418;SDS011;21525;41.240;16.500;2023-01-04T02:52:23;24.35;;;16.83;;
35418;SDS011;21525;41.240;16.500;2023-01-04T02:54:50;21.60;;;14.82;;
35418;SDS011;21525;41.240;16.500;2023-01-04T03:03:13;20.75;;;16.30;;
35418;SDS011;21525;41.240;16.500;2023-01-04T03:06:16;20.90;;;14.80;;
35418;SDS011;21525;41.240;16.500;2023-01-04T03:08:55;21.23;;;14.98;;
35418;SDS011;21525;41.240;16.500;2023-01-04T03:11:37;22.88;;;17.65;;
35418;SDS011;21525;41.240;16.500;2023-01-04T03:14:32;22.15;;;17.20;;
35418;SDS011;21525;41.240;16.500;2023-01-04T03:17:06;29.83;;;20.90;;
35418;SDS011;21525;41.240;16.500;2023-01-04T03:19:37;23.88;;;16.58;;
35418;SDS011;21525;41.240;16.500;2023-01-04T03:22:35;33.55;;;25.35;;
35418;SDS011;21525;41.240;16.500;2023-01-04T03:25:30;23.33;;;17.48;;
35418;SDS011;21525;41.240;16.500;2023-01-04T03:28:19;24.30;;;19.02;;
35418;SDS011;21525;41.240;16.500;2023-01-04T03:31:11;24.63;;;16.38;;
35418;SDS011;21525;41.240;16.500;2023-01-04T03:34:03;24.13;;;16.98;;
35418;SDS011;21525;41.240;16.500;2023-01-04T03:36:59;22.60;;;12.80;;
35418;SDS011;21525;41.240;16.500;2023-01-04T03:46:23;22.95;;;14.40;;
35418;SDS011;21525;41.240;16.500;2023-01-04T03:49:24;18.52;;;12.88;;
35418;SDS011;21525;41.240;16.500;2023-01-04T03:51:56;19.17;;;12.45;;
35418;SDS011;21525;41.240;16.500;2023-01-04T03:54:27;17.70;;;11.65;;
35418;SDS011;21525;41.240;16.500;2023-01-04T03:56:57;19.80;;;12.13;;
35418;SDS011;21525;41.240;16.500;2023-01-04T03:59:24;18.60;;;11.90;;
35418;SDS011;21525;41.240;16.500;2023-01-04T04:01:50;18.52;;;11.98;;
35418;SDS011;21525;41.240;16.500;2023-01-04T04:04:17;17.25;;;11.57;;
35418;SDS011;21525;41.240;16.500;2023-01-04T04:07:01;20.08;;;11.10;;
35418;SDS011;21525;41.240;16.500;2023-01-04T04:09:45;18.55;;;12.15;;
35418;SDS011;21525;41.240;16.500;2023-01-04T04:12:11;17.90;;;11.90;;
35418;SDS011;21525;41.240;16.500;2023-01-04T04:14:37;21.55;;;15.38;;
35418;SDS011;21525;41.240;16.500;2023-01-04T04:17:02;24.10;;;17.90;;
35418;SDS011;21525;41.240;16.500;2023-01-04T04:19:28;17.30;;;12.13;;
35418;SDS011;21525;41.240;16.500;2023-01-04T04:21:54;19.05;;;11.90;;
35418;SDS011;21525;41.240;16.500;2023-01-04T04:24:24;18.60;;;12.77;;
35418;SDS011;21525;41.240;16.500;2023-01-04T04:26:51;17.48;;;11.52;;
35418;SDS011;21525;41.240;16.500;2023-01-04T04:29:19;18.30;;;11.38;;
35418;SDS011;21525;41.240;16.500;2023-01-04T04:31:44;18.67;;;12.45;;
35418;SDS011;21525;41.240;16.500;2023-01-04T04:34:11;16.50;;;11.80;;
35418;SDS011;21525;41.240;16.500;2023-01-04T04:36:37;17.88;;;11.73;;
35418;SDS011;21525;41.240;16.500;2023-01-04T04:39:02;16.05;;;11.60;;
35418;SDS011;21525;41.240;16.500;2023-01-04T04:41:28;18.67;;;11.82;;
35418;SDS011;21525;41.240;16.500;2023-01-04T04:44:04;17.45;;;10.75;;
35418;SDS011;21525;41.240;16.500;2023-01-04T04:46:31;19.07;;;12.53;;
35418;SDS011;21525;41.240;16.500;2023-01-04T04:48:57;18.38;;;10.75;;
35418;SDS011;21525;41.240;16.500;2023-01-04T04:51:23;20.65;;;12.73;;
35418;SDS011;21525;41.240;16.500;2023-01-04T04:53:49;17.00;;;11.60;;
35418;SDS011;21525;41.240;16.500;2023-01-04T04:56:15;19.88;;;14.48;;
35418;SDS011;21525;41.240;16.500;2023-01-04T04:58:41;21.23;;;13.75;;
35418;SDS011;21525;41.240;16.500;2023-01-04T05:01:06;18.48;;;12.63;;
35418;SDS011;21525;41.240;16.500;2023-01-04T05:03:33;18.38;;;10.55;;
35418;SDS011;21525;41.240;16.500;2023-01-04T05:05:59;18.42;;;13.15;;
35418;SDS011;21525;41.240;16.500;2023-01-04T05:08:25;15.93;;;11.73;;
35418;SDS011;21525;41.240;16.500;2023-01-04T05:10:51;16.50;;;11.57;;
35418;SDS011;21525;41.240;16.500;2023-01-04T05:13:17;20.40;;;12.23;;
35418;SDS011;21525;41.240;16.500;2023-01-04T05:15:43;19.55;;;11.80;;
35418;SDS011;21525;41.240;16.500;2023-01-04T05:18:12;18.33;;;11.70;;
35418;SDS011;21525;41.240;16.500;2023-01-04T05:20:39;17.48;;;11.10;;
35418;SDS011;21525;41.240;16.500;2023-01-04T05:23:05;17.48;;;11.00;;
35418;SDS011;21525;41.240;16.500;2023-01-04T05:25:34;18.58;;;11.75;;
35418;SDS011;21525;41.240;16.500;2023-01-04T05:28:00;19.23;;;11.63;;
35418;SDS011;21525;41.240;16.500;2023-01-04T05:30:26;15.25;;;10.18;;
35418;SDS011;21525;41.240;16.500;2023-01-04T05:33:10;17.30;;;11.55;;
35418;SDS011;21525;41.240;16.500;2023-01-04T05:35:36;18.55;;;12.52;;
35418;SDS011;21525;41.240;16.500;2023-01-04T05:38:02;20.55;;;11.63;;
35418;SDS011;21525;41.240;16.500;2023-01-04T05:40:28;16.10;;;11.52;;
35418;SDS011;21525;41.240;16.500;2023-01-04T05:42:54;17.33;;;11.35;;
35418;SDS011;21525;41.240;16.500;2023-01-04T05:45:20;18.00;;;11.55;;
35418;SDS011;21525;41.240;16.500;2023-01-04T05:47:49;17.20;;;12.30;;
35418;SDS011;21525;41.240;16.500;2023-01-04T05:50:18;17.83;;;11.52;;
35418;SDS011;21525;41.240;16.500;2023-01-04T05:52:45;18.70;;;11.48;;
35418;SDS011;21525;41.240;16.500;2023-01-04T05:55:11;19.58;;;12.45;;
35418;SDS011;21525;41.240;16.500;2023-01-04T05:57:37;19.02;;;11.98;;
35418;SDS011;21525;41.240;16.500;2023-01-04T06:00:04;20.88;;;13.30;;
35418;SDS011;21525;41.240;16.500;2023-01-04T06:02:38;18.50;;;12.75;;
35418;SDS011;21525;41.240;16.500;2023-01-04T06:05:04;18.50;;;12.77;;
35418;SDS011;21525;41.240;16.500;2023-01-04T06:07:30;19.35;;;11.98;;
35418;SDS011;21525;41.240;16.500;2023-01-04T06:09:56;20.42;;;13.52;;
35418;SDS011;21525;41.240;16.500;2023-01-04T06:12:22;24.70;;;13.60;;
35418;SDS011;21525;41.240;16.500;2023-01-04T06:14:48;19.98;;;13.32;;
35418;SDS011;21525;41.240;16.500;2023-01-04T06:17:14;20.08;;;12.93;;
35418;SDS011;21525;41.240;16.500;2023-01-04T06:19:40;19.58;;;12.48;;
35418;SDS011;21525;41.240;16.500;2023-01-04T06:22:06;21.45;;;13.38;;
35418;SDS011;21525;41.240;16.500;2023-01-04T06:24:32;19.58;;;12.43;;
35418;SDS011;21525;41.240;16.500;2023-01-04T06:26:59;22.20;;;13.07;;
35418;SDS011;21525;41.240;16.500;2023-01-04T06:29:25;20.77;;;13.07;;
35418;SDS011;21525;41.240;16.500;2023-01-04T06:31:51;20.80;;;13.50;;
35418;SDS011;21525;41.240;16.500;2023-01-04T06:34:17;22.33;;;13.88;;
35418;SDS011;21525;41.240;16.500;2023-01-04T06:36:42;21.20;;;13.30;;
35418;SDS011;21525;41.240;16.500;2023-01-04T06:39:08;20.25;;;14.60;;
35418;SDS011;21525;41.240;16.500;2023-01-04T06:41:34;22.63;;;14.82;;
35418;SDS011;21525;41.240;16.500;2023-01-04T06:44:00;24.90;;;16.17;;
35418;SDS011;21525;41.240;16.500;2023-01-04T06:46:26;26.20;;;18.38;;
35418;SDS011;21525;41.240;16.500;2023-01-04T06:48:52;27.20;;;17.48;;
35418;SDS011;21525;41.240;16.500;2023-01-04T06:51:21;29.98;;;19.23;;
35418;SDS011;21525;41.240;16.500;2023-01-04T06:53:47;35.35;;;21.58;;
35418;SDS011;21525;41.240;16.500;2023-01-04T06:56:13;37.03;;;24.25;;
35418;SDS011;21525;41.240;16.500;2023-01-04T06:58:39;40.00;;;25.42;;
35418;SDS011;21525;41.240;16.500;2023-01-04T07:01:06;41.33;;;25.23;;
35418;SDS011;21525;41.240;16.500;2023-01-04T07:03:32;46.55;;;29.20;;
35418;SDS011;21525;41.240;16.500;2023-01-04T07:05:58;46.83;;;30.10;;
35418;SDS011;21525;41.240;16.500;2023-01-04T07:08:24;48.20;;;29.73;;
35418;SDS011;21525;41.240;16.500;2023-01-04T07:10:50;49.95;;;31.38;;
35418;SDS011;21525;41.240;16.500;2023-01-04T07:13:16;46.90;;;29.67;;
35418;SDS011;21525;41.240;16.500;2023-01-04T07:15:41;45.88;;;30.00;;
35418;SDS011;21525;41.240;16.500;2023-01-04T07:18:08;46.25;;;32.13;;
35418;SDS011;21525;41.240;16.500;2023-01-04T07:20:35;43.30;;;29.65;;
35418;SDS011;21525;41.240;16.500;2023-01-04T07:23:02;41.00;;;27.40;;
35418;SDS011;21525;41.240;16.500;2023-01-04T07:25:28;36.95;;;24.15;;
35418;SDS011;21525;41.240;16.500;2023-01-04T07:27:54;36.28;;;24.55;;
35418;SDS011;21525;41.240;16.500;2023-01-04T07:30:20;41.50;;;22.00;;
35418;SDS011;21525;41.240;16.500;2023-01-04T07:32:47;31.80;;;20.80;;
35418;SDS011;21525;41.240;16.500;2023-01-04T07:35:13;31.23;;;21.00;;
35418;SDS011;21525;41.240;16.500;2023-01-04T07:37:41;29.23;;;21.48;;
35418;SDS011;21525;41.240;16.500;2023-01-04T07:40:08;28.92;;;20.50;;
35418;SDS011;21525;41.240;16.500;2023-01-04T07:42:35;27.70;;;18.92;;
35418;SDS011;21525;41.240;16.500;2023-01-04T07:45:01;26.80;;;18.63;;
35418;SDS011;21525;41.240;16.500;2023-01-04T07:47:27;26.88;;;19.15;;
35418;SDS011;21525;41.240;16.500;2023-01-04T07:49:53;26.13;;;19.80;;
35418;SDS011;21525;41.240;16.500;2023-01-04T07:52:19;25.52;;;19.42;;
35418;SDS011;21525;41.240;16.500;2023-01-04T07:54:45;24.58;;;20.48;;
35418;SDS011;21525;41.240;16.500;2023-01-04T07:57:11;26.52;;;21.00;;
35418;SDS011;21525;41.240;16.500;2023-01-04T07:59:37;24.35;;;19.45;;
35418;SDS011;21525;41.240;16.500;2023-01-04T08:02:02;27.58;;;19.75;;
35418;SDS011;21525;41.240;16.500;2023-01-04T08:04:28;25.55;;;19.13;;
35418;SDS011;21525;41.240;16.500;2023-01-04T08:06:54;22.88;;;18.67;;
35418;SDS011;21525;41.240;16.500;2023-01-04T08:09:20;23.05;;;17.70;;
35418;SDS011;21525;41.240;16.500;2023-01-04T08:11:46;21.85;;;16.60;;
35418;SDS011;21525;41.240;16.500;2023-01-04T08:14:12;19.70;;;16.42;;
35418;SDS011;21525;41.240;16.500;2023-01-04T08:16:39;21.80;;;16.33;;
35418;SDS011;21525;41.240;16.500;2023-01-04T08:19:07;21.45;;;16.50;;
35418;SDS011;21525;41.240;16.500;2023-01-04T08:21:34;19.65;;;15.55;;
35418;SDS011;21525;41.240;16.500;2023-01-04T08:24:00;21.02;;;15.88;;
35418;SDS011;21525;41.240;16.500;2023-01-04T08:26:28;30.08;;;16.83;;
35418;SDS011;21525;41.240;16.500;2023-01-04T08:28:54;22.08;;;15.38;;
35418;SDS011;21525;41.240;16.500;2023-01-04T08:31:27;22.30;;;15.93;;
35418;SDS011;21525;41.240;16.500;2023-01-04T08:33:56;26.83;;;16.10;;
35418;SDS011;21525;41.240;16.500;2023-01-04T08:36:27;21.40;;;14.15;;
35418;SDS011;21525;41.240;16.500;2023-01-04T08:38:55;19.35;;;12.70;;
35418;SDS011;21525;41.240;16.500;2023-01-04T08:41:23;15.27;;;11.23;;
35418;SDS011;21525;41.240;16.500;2023-01-04T08:43:50;16.42;;;11.75;;
35418;SDS011;21525;41.240;16.500;2023-01-04T08:46:16;18.67;;;12.05;;
35418;SDS011;21525;41.240;16.500;2023-01-04T08:48:41;17.10;;;11.48;;
35418;SDS011;21525;41.240;16.500;2023-01-04T08:51:11;19.35;;;12.07;;
35418;SDS011;21525;41.240;16.500;2023-01-04T08:53:39;23.27;;;12.07;;
35418;SDS011;21525;41.240;16.500;2023-01-04T08:56:05;20.30;;;12.23;;
35418;SDS011;21525;41.240;16.500;2023-01-04T08:58:33;23.80;;;14.70;;
35418;SDS011;21525;41.240;16.500;2023-01-04T09:01:00;19.87;;;11.80;;
35418;SDS011;21525;41.240;16.500;2023-01-04T09:03:28;20.25;;;11.98;;
35418;SDS011;21525;41.240;16.500;2023-01-04T09:06:00;16.20;;;10.85;;
35418;SDS011;21525;41.240;16.500;2023-01-04T09:08:32;16.30;;;10.05;;
35418;SDS011;21525;41.240;16.500;2023-01-04T09:11:02;17.65;;;9.90;;
35418;SDS011;21525;41.240;16.500;2023-01-04T09:13:30;19.17;;;10.43;;
35418;SDS011;21525;41.240;16.500;2023-01-04T09:15:58;28.40;;;20.70;;
35418;SDS011;21525;41.240;16.500;2023-01-04T09:18:28;17.90;;;10.43;;
35418;SDS011;21525;41.240;16.500;2023-01-04T09:20:55;13.43;;;9.05;;
35418;SDS011;21525;41.240;16.500;2023-01-04T09:23:21;16.13;;;10.07;;
35418;SDS011;21525;41.240;16.500;2023-01-04T09:25:47;20.77;;;9.45;;
35418;SDS011;21525;41.240;16.500;2023-01-04T09:28:13;15.85;;;10.23;;
35418;SDS011;21525;41.240;16.500;2023-01-04T09:30:39;13.68;;;9.15;;
35418;SDS011;21525;41.240;16.500;2023-01-04T09:33:05;15.43;;;8.43;;
35418;SDS011;21525;41.240;16.500;2023-01-04T09:35:31;20.10;;;9.73;;
35418;SDS011;21525;41.240;16.500;2023-01-04T09:37:57;19.00;;;9.10;;
35418;SDS011;21525;41.240;16.500;2023-01-04T09:40:25;22.15;;;9.45;;
35418;SDS011;21525;41.240;16.500;2023-01-04T09:42:59;13.75;;;8.98;;
35418;SDS011;21525;41.240;16.500;2023-01-04T09:45:27;27.83;;;10.68;;
35418;SDS011;21525;41.240;16.500;2023-01-04T09:47:58;15.10;;;8.77;;
35418;SDS011;21525;41.240;16.500;2023-01-04T09:50:33;20.33;;;9.35;;
35418;SDS011;21525;41.240;16.500;2023-01-04T09:53:19;18.63;;;10.27;;
35418;SDS011;21525;41.240;16.500;2023-01-04T09:55:54;19.70;;;9.30;;
35418;SDS011;21525;41.240;16.500;2023-01-04T09:58:36;15.02;;;8.65;;
35418;SDS011;21525;41.240;16.500;2023-01-04T10:01:15;15.85;;;8.70;;
35418;SDS011;21525;41.240;16.500;2023-01-04T10:04:05;13.10;;;8.05;;
35418;SDS011;21525;41.240;16.500;2023-01-04T10:06:39;15.35;;;8.93;;
35418;SDS011;21525;41.240;16.500;2023-01-04T10:09:08;14.55;;;8.55;;
35418;SDS011;21525;41.240;16.500;2023-01-04T10:11:54;19.00;;;11.68;;
35418;SDS011;21525;41.240;16.500;2023-01-04T10:30:44;18.85;;;8.40;;
35418;SDS011;21525;41.240;16.500;2023-01-04T10:33:23;13.05;;;8.07;;
35418;SDS011;21525;41.240;16.500;2023-01-04T10:35:52;18.08;;;8.85;;
35418;SDS011;21525;41.240;16.500;2023-01-04T10:38:26;13.65;;;7.97;;
35418;SDS011;21525;41.240;16.500;2023-01-04T10:40:58;20.63;;;8.75;;
35418;SDS011;21525;41.240;16.500;2023-01-04T10:46:36;13.57;;;8.40;;
35418;SDS011;21525;41.240;16.500;2023-01-04T10:49:16;14.27;;;8.00;;
35418;SDS011;21525;41.240;16.500;2023-01-04T10:52:24;13.82;;;7.93;;
35418;SDS011;21525;41.240;16.500;2023-01-04T10:54:48;19.80;;;9.73;;
35418;SDS011;21525;41.240;16.500;2023-01-04T11:05:49;19.48;;;10.98;;
35418;SDS011;21525;41.240;16.500;2023-01-04T11:08:12;20.60;;;8.93;;
35418;SDS011;21525;41.240;16.500;2023-01-04T11:13:16;20.30;;;8.65;;
35418;SDS011;21525;41.240;16.500;2023-01-04T11:15:42;15.85;;;7.72;;
35418;SDS011;21525;41.240;16.500;2023-01-04T11:18:10;16.35;;;8.63;;
35418;SDS011;21525;41.240;16.500;2023-01-04T11:20:38;17.23;;;7.85;;
35418;SDS011;21525;41.240;16.500;2023-01-04T11:23:06;16.40;;;8.50;;
35418;SDS011;21525;41.240;16.500;2023-01-04T11:25:38;21.13;;;9.30;;
35418;SDS011;21525;41.240;16.500;2023-01-04T11:28:15;17.13;;;9.25;;
35418;SDS011;21525;41.240;16.500;2023-01-04T11:30:50;20.75;;;10.40;;
35418;SDS011;21525;41.240;16.500;2023-01-04T11:33:21;17.17;;;10.05;;
35418;SDS011;21525;41.240;16.500;2023-01-04T11:35:55;15.32;;;7.88;;
35418;SDS011;21525;41.240;16.500;2023-01-04T11:38:24;19.08;;;9.18;;
35418;SDS011;21525;41.240;16.500;2023-01-04T11:41:05;20.90;;;8.25;;
35418;SDS011;21525;41.240;16.500;2023-01-04T11:43:32;14.63;;;8.98;;
35418;SDS011;21525;41.240;16.500;2023-01-04T11:46:01;17.17;;;9.65;;
35418;SDS011;21525;41.240;16.500;2023-01-04T11:48:45;17.55;;;9.75;;
35418;SDS011;21525;41.240;16.500;2023-01-04T11:54:01;17.73;;;9.15;;
35418;SDS011;21525;41.240;16.500;2023-01-04T11:56:30;14.85;;;8.55;;
35418;SDS011;21525;41.240;16.500;2023-01-04T11:59:21;13.55;;;8.52;;
35418;SDS011;21525;41.240;16.500;2023-01-04T12:01:47;14.07;;;7.88;;
35418;SDS011;21525;41.240;16.500;2023-01-04T12:04:15;19.67;;;8.85;;
35418;SDS011;21525;41.240;16.500;2023-01-04T12:06:49;15.30;;;9.30;;
35418;SDS011;21525;41.240;16.500;2023-01-04T12:09:16;19.95;;;9.95;;
35418;SDS011;21525;41.240;16.500;2023-01-04T12:11:56;15.27;;;9.10;;
35418;SDS011;21525;41.240;16.500;2023-01-04T12:14:26;15.00;;;9.15;;
35418;SDS011;21525;41.240;16.500;2023-01-04T12:20:18;16.50;;;9.00;;
35418;SDS011;21525;41.240;16.500;2023-01-04T12:22:45;16.90;;;7.80;;
35418;SDS011;21525;41.240;16.500;2023-01-04T12:25:27;14.80;;;8.05;;
35418;SDS011;21525;41.240;16.500;2023-01-04T12:27:59;14.60;;;8.38;;
35418;SDS011;21525;41.240;16.500;2023-01-04T12:30:42;21.30;;;7.68;;
35418;SDS011;21525;41.240;16.500;2023-01-04T12:35:58;15.13;;;7.65;;
35418;SDS011;21525;41.240;16.500;2023-01-04T12:41:17;13.57;;;7.93;;
35418;SDS011;21525;41.240;16.500;2023-01-04T12:43:44;17.42;;;8.20;;
35418;SDS011;21525;41.240;16.500;2023-01-04T12:54:50;13.75;;;8.10;;
35418;SDS011;21525;41.240;16.500;2023-01-04T13:02:36;18.05;;;8.48;;
35418;SDS011;21525;41.240;16.500;2023-01-04T13:07:47;14.48;;;8.20;;
35418;SDS011;21525;41.240;16.500;2023-01-04T13:10:34;17.58;;;8.38;;
35418;SDS011;21525;41.240;16.500;2023-01-04T13:13:13;15.63;;;7.57;;
35418;SDS011;21525;41.240;16.500;2023-01-04T13:15:45;16.38;;;7.20;;
35418;SDS011;21525;41.240;16.500;2023-01-04T13:18:26;17.00;;;7.43;;
35418;SDS011;21525;41.240;16.500;2023-01-04T13:21:03;15.18;;;7.45;;
35418;SDS011;21525;41.240;16.500;2023-01-04T13:24:02;18.35;;;7.30;;
35418;SDS011;21525;41.240;16.500;2023-01-04T13:31:39;12.25;;;6.18;;
35418;SDS011;21525;41.240;16.500;2023-01-04T13:34:12;13.98;;;7.28;;
35418;SDS011;21525;41.240;16.500;2023-01-04T13:36:42;11.57;;;7.13;;
35418;SDS011;21525;41.240;16.500;2023-01-04T13:39:10;16.48;;;8.57;;
35418;SDS011;21525;41.240;16.500;2023-01-04T13:41:36;14.90;;;8.52;;
35418;SDS011;21525;41.240;16.500;2023-01-04T13:44:05;12.63;;;7.43;;
35418;SDS011;21525;41.240;16.500;2023-01-04T13:46:42;16.83;;;8.27;;
35418;SDS011;21525;41.240;16.500;2023-01-04T13:51:36;16.75;;;10.23;;
35418;SDS011;21525;41.240;16.500;2023-01-04T13:54:05;19.30;;;9.35;;
35418;SDS011;21525;41.240;16.500;2023-01-04T13:56:41;14.88;;;8.90;;
35418;SDS011;21525;41.240;16.500;2023-01-04T13:59:07;18.65;;;9.45;;
35418;SDS011;21525;41.240;16.500;2023-01-04T14:01:41;20.10;;;10.30;;
35418;SDS011;21525;41.240;16.500;2023-01-04T14:04:27;28.02;;;12.23;;
35418;SDS011;21525;41.240;16.500;2023-01-04T14:06:55;23.90;;;13.77;;
35418;SDS011;21525;41.240;16.500;2023-01-04T14:09:27;24.30;;;13.27;;
35418;SDS011;21525;41.240;16.500;2023-01-04T14:11:57;29.02;;;13.35;;
35418;SDS011;21525;41.240;16.500;2023-01-04T14:30:50;19.40;;;12.35;;
35418;SDS011;21525;41.240;16.500;2023-01-04T14:33:19;23.40;;;13.10;;
35418;SDS011;21525;41.240;16.500;2023-01-04T14:43:46;23.65;;;12.93;;
35418;SDS011;21525;41.240;16.500;2023-01-04T14:46:14;25.40;;;12.98;;
35418;SDS011;21525;41.240;16.500;2023-01-04T14:48:40;24.40;;;13.32;;
35418;SDS011;21525;41.240;16.500;2023-01-04T14:51:06;22.17;;;13.32;;
35418;SDS011;21525;41.240;16.500;2023-01-04T14:53:32;20.35;;;12.35;;
35418;SDS011;21525;41.240;16.500;2023-01-04T14:55:58;21.40;;;11.93;;
35418;SDS011;21525;41.240;16.500;2023-01-04T14:58:24;18.30;;;11.25;;
35418;SDS011;21525;41.240;16.500;2023-01-04T15:00:50;16.40;;;10.18;;
35418;SDS011;21525;41.240;16.500;2023-01-04T15:03:15;19.80;;;10.50;;
35418;SDS011;21525;41.240;16.500;2023-01-04T15:05:42;20.25;;;9.52;;
35418;SDS011;21525;41.240;16.500;2023-01-04T15:08:10;17.98;;;10.50;;
35418;SDS011;21525;41.240;16.500;2023-01-04T15:10:37;16.88;;;10.63;;
35418;SDS011;21525;41.240;16.500;2023-01-04T15:13:03;18.80;;;9.75;;
35418;SDS011;21525;41.240;16.500;2023-01-04T15:15:30;16.10;;;9.40;;
35418;SDS011;21525;41.240;16.500;2023-01-04T15:17:58;21.42;;;11.07;;
35418;SDS011;21525;41.240;16.500;2023-01-04T15:20:24;19.83;;;10.43;;
35418;SDS011;21525;41.240;16.500;2023-01-04T15:22:51;19.10;;;10.73;;
35418;SDS011;21525;41.240;16.500;2023-01-04T15:25:17;21.65;;;10.43;;
35418;SDS011;21525;41.240;16.500;2023-01-04T15:27:42;18.45;;;11.02;;
35418;SDS011;21525;41.240;16.500;2023-01-04T15:30:09;19.67;;;11.13;;
35418;SDS011;21525;41.240;16.500;2023-01-04T15:32:36;22.00;;;12.68;;
35418;SDS011;21525;41.240;16.500;2023-01-04T15:35:02;23.35;;;13.05;;
35418;SDS011;21525;41.240;16.500;2023-01-04T15:37:29;22.15;;;13.23;;
35418;SDS011;21525;41.240;16.500;2023-01-04T15:39:54;22.50;;;12.45;;
35418;SDS011;21525;41.240;16.500;2023-01-04T15:42:20;21.92;;;11.35;;
35418;SDS011;21525;41.240;16.500;2023-01-04T15:45:05;20.98;;;12.77;;
35418;SDS011;21525;41.240;16.500;2023-01-04T15:47:31;21.67;;;13.50;;
35418;SDS011;21525;41.240;16.500;2023-01-04T15:49:58;22.45;;;13.45;;
35418;SDS011;21525;41.240;16.500;2023-01-04T15:52:24;22.30;;;12.95;;
35418;SDS011;21525;41.240;16.500;2023-01-04T15:54:50;28.75;;;13.35;;
35418;SDS011;21525;41.240;16.500;2023-01-04T15:57:16;22.50;;;12.73;;
35418;SDS011;21525;41.240;16.500;2023-01-04T15:59:42;24.20;;;13.82;;
35418;SDS011;21525;41.240;16.500;2023-01-04T16:02:09;22.95;;;13.73;;
35418;SDS011;21525;41.240;16.500;2023-01-04T16:04:36;25.20;;;14.25;;
35418;SDS011;21525;41.240;16.500;2023-01-04T16:07:02;23.83;;;13.80;;
35418;SDS011;21525;41.240;16.500;2023-01-04T16:09:28;24.85;;;14.13;;
35418;SDS011;21525;41.240;16.500;2023-01-04T16:11:54;24.90;;;15.18;;
35418;SDS011;21525;41.240;16.500;2023-01-04T16:14:38;25.52;;;14.98;;
35418;SDS011;21525;41.240;16.500;2023-01-04T16:17:04;24.60;;;15.15;;
35418;SDS011;21525;41.240;16.500;2023-01-04T16:19:30;29.30;;;15.85;;
35418;SDS011;21525;41.240;16.500;2023-01-04T16:21:57;29.58;;;16.15;;
35418;SDS011;21525;41.240;16.500;2023-01-04T16:24:23;24.45;;;15.35;;
35418;SDS011;21525;41.240;16.500;2023-01-04T16:26:49;24.50;;;15.70;;
35418;SDS011;21525;41.240;16.500;2023-01-04T16:29:14;26.58;;;15.55;;